createdAt,value
2022-11-05T00:01:42.624Z,96747.13
2022-11-05T00:04:08.950Z,96744.47
2022-11-05T00:06:35.215Z,96746.06
2022-11-05T00:09:01.457Z,96750.38
2022-11-05T00:11:27.686Z,96749.22
2022-11-05T00:13:53.910Z,96753.75
2022-11-05T00:16:20.173Z,96749.69
2022-11-05T00:18:46.429Z,96753.41
2022-11-05T00:21:12.675Z,96764.56
2022-11-05T00:23:38.908Z,96764.81
2022-11-05T00:26:05.189Z,96762.38
2022-11-05T00:28:31.429Z,96771.53
2022-11-05T00:30:57.664Z,96771.28
2022-11-05T00:33:24.396Z,96777.19
2022-11-05T00:35:50.649Z,96784.16
2022-11-05T00:38:16.897Z,96788.59
2022-11-05T00:40:43.149Z,96796.25
2022-11-05T00:43:09.665Z,96790.44
2022-11-05T00:45:36.210Z,96791.72
2022-11-05T00:48:02.455Z,96803.44
2022-11-05T00:50:28.698Z,96800.78
2022-11-05T00:52:54.925Z,96800.78
2022-11-05T00:55:21.162Z,96800.78
2022-11-05T00:57:47.407Z,96804.50
2022-11-05T01:00:13.690Z,96806.59
2022-11-05T01:02:40.065Z,96803.44
2022-11-05T01:05:06.435Z,96804.75
2022-11-05T01:07:32.692Z,96814.59
2022-11-05T01:09:58.943Z,96816.78
2022-11-05T01:12:25.703Z,96819.22
2022-11-05T01:14:53.450Z,96817.94
2022-11-05T01:17:19.698Z,96813.66
2022-11-05T01:19:45.942Z,96813.16
2022-11-05T01:22:12.172Z,96817.69
2022-11-05T01:24:38.415Z,96821.41
2022-11-05T01:27:04.661Z,96812.38
2022-11-05T01:29:30.885Z,96812.13
2022-11-05T01:31:57.161Z,96815.84
2022-11-05T01:34:23.408Z,96812.94
2022-11-05T01:36:49.647Z,96822.31
2022-11-05T01:39:16.046Z,96821.50
2022-11-05T01:41:42.341Z,96825.00
2022-11-05T01:44:08.601Z,96816.25
2022-11-05T01:46:36.956Z,96826.13
2022-11-05T01:49:03.632Z,96834.47
2022-11-05T01:51:32.948Z,96828.91
2022-11-05T01:53:59.287Z,96834.22
2022-11-05T01:56:25.640Z,96832.63
2022-11-05T01:58:51.921Z,96832.84
2022-11-05T02:01:18.376Z,96837.13
2022-11-05T02:03:44.712Z,96836.34
2022-11-05T02:06:10.963Z,96833.41
2022-11-05T02:08:37.197Z,96836.34
2022-11-05T02:11:03.538Z,96841.09
2022-11-05T02:13:29.794Z,96838.66
2022-11-05T02:15:56.039Z,96842.47
2022-11-05T02:18:22.307Z,96851.63
2022-11-05T02:20:52.140Z,96854.06
2022-11-05T02:23:18.714Z,96856.50
2022-11-05T02:25:44.966Z,96861.00
2022-11-05T02:28:11.218Z,96865.53
2022-11-05T02:30:37.445Z,96869.03
2022-11-05T02:33:03.677Z,96862.88
2022-11-05T02:35:29.915Z,96871.94
2022-11-05T02:37:56.149Z,96862.88
2022-11-05T02:40:22.419Z,96864.25
2022-11-05T02:42:48.648Z,96870.66
2022-11-05T02:45:14.877Z,96865.31
2022-11-05T02:47:41.113Z,96865.88
2022-11-05T02:50:07.359Z,96866.69
2022-11-05T02:52:33.608Z,96877.69
2022-11-05T02:54:59.856Z,96873.16
2022-11-05T02:57:26.089Z,96885.47
2022-11-05T02:59:52.336Z,96887.56
2022-11-05T03:02:18.655Z,96887.56
2022-11-05T03:04:44.985Z,96887.81
2022-11-05T03:07:11.239Z,96891.75
2022-11-05T03:09:37.484Z,96899.53
2022-11-05T03:12:03.748Z,96901.97
2022-11-05T03:14:29.982Z,96897.44
2022-11-05T03:16:56.211Z,96896.84
2022-11-05T03:19:22.443Z,96895.25
2022-11-05T03:21:48.692Z,96900.34
2022-11-05T03:24:14.951Z,96898.25
2022-11-05T03:26:41.178Z,96898.47
2022-11-05T03:29:07.432Z,96899.28
2022-11-05T03:31:33.683Z,96898.25
2022-11-05T03:33:59.934Z,96910.78
2022-11-05T03:36:26.182Z,96920.41
2022-11-05T03:38:52.427Z,96929.47
2022-11-05T03:41:18.687Z,96918.78
2022-11-05T03:43:44.930Z,96923.06
2022-11-05T03:46:11.187Z,96932.13
2022-11-05T03:48:37.469Z,96924.13
2022-11-05T03:51:03.830Z,96934.22
2022-11-05T03:53:30.081Z,96930.75
2022-11-05T03:55:56.341Z,96927.84
2022-11-05T03:58:22.591Z,96937.47
2022-11-05T04:00:48.832Z,96934.56
2022-11-05T04:03:15.070Z,96936.91
2022-11-05T04:05:41.312Z,96932.38
2022-11-05T04:08:12.962Z,96934.81
2022-11-05T04:10:40.465Z,96938.03
2022-11-05T04:13:06.709Z,96944.44
2022-11-05T04:15:32.944Z,96943.63
2022-11-05T04:17:59.170Z,96947.09
2022-11-05T04:20:25.419Z,96940.47
2022-11-05T04:22:51.671Z,96942.81
2022-11-05T04:25:17.913Z,96945.47
2022-11-05T04:27:44.164Z,96947.69
2022-11-05T04:30:10.424Z,96943.16
2022-11-05T04:32:36.665Z,96948.97
2022-11-05T04:35:02.957Z,96952.69
2022-11-05T04:37:29.197Z,96958.81
2022-11-05T04:39:55.438Z,96948.16
2022-11-05T04:42:21.712Z,96956.25
2022-11-05T04:44:47.959Z,96949.53
2022-11-05T04:47:14.203Z,96961.03
2022-11-05T04:49:40.434Z,96963.22
2022-11-05T04:52:06.693Z,96970.66
2022-11-05T04:54:33.011Z,96974.38
2022-11-05T04:56:59.424Z,96978.44
2022-11-05T04:59:25.664Z,96980.06
2022-11-05T05:01:51.923Z,96980.06
2022-11-05T05:04:18.220Z,96982.97
2022-11-05T05:06:44.479Z,96982.47
2022-11-05T05:09:10.732Z,96985.38
2022-11-05T05:11:36.980Z,96993.63
2022-11-05T05:14:03.224Z,96993.63
2022-11-05T05:16:29.459Z,96998.75
2022-11-05T05:18:55.694Z,97005.69
2022-11-05T05:21:21.934Z,96993.63
2022-11-05T05:23:48.162Z,97000.59
2022-11-05T05:26:14.421Z,96997.34
2022-11-05T05:28:40.684Z,96997.34
2022-11-05T05:31:06.916Z,96996.19
2022-11-05T05:33:33.158Z,97011.75
2022-11-05T05:35:59.407Z,97013.38
2022-11-05T05:38:25.662Z,97013.38
2022-11-05T05:40:51.912Z,97009.06
2022-11-05T05:43:18.158Z,97008.50
2022-11-05T05:45:44.430Z,97011.16
2022-11-05T05:48:10.669Z,97017.09
2022-11-05T05:50:36.921Z,97011.50
2022-11-05T05:53:03.164Z,97016.03
2022-11-05T05:55:29.401Z,97016.28
2022-11-05T05:57:55.667Z,97020.00
2022-11-05T06:00:21.920Z,97025.56
2022-11-05T06:02:48.278Z,97023.38
2022-11-05T06:05:14.617Z,97027.19
2022-11-05T06:07:40.850Z,97036.25
2022-11-05T06:10:07.105Z,97035.66
2022-11-05T06:12:33.365Z,97032.66
2022-11-05T06:14:59.619Z,97036.72
2022-11-05T06:17:25.877Z,97038.00
2022-11-05T06:19:52.122Z,97029.50
2022-11-05T06:22:18.363Z,97028.69
2022-11-05T06:24:44.693Z,97036.25
2022-11-05T06:27:10.957Z,97038.09
2022-11-05T06:29:37.267Z,97045.88
2022-11-05T06:32:03.519Z,97045.06
2022-11-05T06:34:29.758Z,97044.81
2022-11-05T06:36:56.000Z,97050.41
2022-11-05T06:39:22.244Z,97054.94
2022-11-05T06:42:16.576Z,97061.06
2022-11-05T06:44:34.705Z,97059.47
2022-11-05T06:47:00.944Z,97055.16
2022-11-05T06:49:27.203Z,97060.16
2022-11-05T06:51:53.464Z,97061.78
2022-11-05T06:54:19.693Z,97072.47
2022-11-05T06:56:45.941Z,97072.22
2022-11-05T06:59:12.260Z,97075.47
2022-11-05T07:01:38.599Z,97073.38
2022-11-05T07:04:04.903Z,97074.44
2022-11-05T07:06:36.670Z,97081.38
2022-11-05T07:09:03.286Z,97078.72
2022-11-05T07:11:29.532Z,97083.00
2022-11-05T07:13:55.798Z,97083.81
2022-11-05T07:16:22.049Z,97087.06
2022-11-05T07:18:48.367Z,97089.50
2022-11-05T07:21:14.619Z,97101.22
2022-11-05T07:23:40.867Z,97110.06
2022-11-05T07:26:07.117Z,97107.97
2022-11-05T07:28:33.354Z,97105.28
2022-11-05T07:30:59.591Z,97108.31
2022-11-05T07:33:25.845Z,97111.56
2022-11-05T07:35:52.095Z,97119.56
2022-11-05T07:38:18.342Z,97125.16
2022-11-05T07:40:44.596Z,97130.00
2022-11-05T07:43:11.091Z,97126.31
2022-11-05T07:45:37.485Z,97135.47
2022-11-05T07:48:03.749Z,97146.72
2022-11-05T07:50:29.989Z,97144.28
2022-11-05T07:52:56.239Z,97149.63
2022-11-05T07:55:22.487Z,97147.78
2022-11-05T07:57:48.740Z,97148.13
2022-11-05T08:00:15.010Z,97147.88
2022-11-05T08:02:41.483Z,97150.56
2022-11-05T08:05:07.926Z,97157.53
2022-11-05T08:07:34.169Z,97159.50
2022-11-05T08:10:00.445Z,97155.53
2022-11-05T08:12:26.688Z,97158.78
2022-11-05T08:14:52.945Z,97156.94
2022-11-05T08:17:19.233Z,97166.34
2022-11-05T08:19:45.487Z,97151.34
2022-11-05T08:22:11.749Z,97160.75
2022-11-05T08:24:38.001Z,97167.25
2022-11-05T08:27:04.285Z,97170.28
2022-11-05T08:29:30.543Z,97175.19
2022-11-05T08:31:56.797Z,97169.59
2022-11-05T08:34:23.114Z,97170.19
2022-11-05T08:36:49.361Z,97174.47
2022-11-05T08:39:17.112Z,97181.44
2022-11-05T08:41:43.482Z,97191.34
2022-11-05T08:44:09.752Z,97192.38
2022-11-05T08:46:41.272Z,97192.97
2022-11-05T08:49:08.000Z,97189.22
2022-11-05T08:51:34.360Z,97176.91
2022-11-05T08:54:00.594Z,97187.38
2022-11-05T08:56:26.843Z,97185.50
2022-11-05T08:58:53.132Z,97183.66
2022-11-05T09:01:19.495Z,97181.56
2022-11-05T09:03:45.819Z,97187.72
2022-11-05T09:06:12.071Z,97181.31
2022-11-05T09:08:38.316Z,97190.16
2022-11-05T09:11:04.605Z,97195.25
2022-11-05T09:13:30.843Z,97198.41
2022-11-05T09:15:57.099Z,97202.94
2022-11-05T09:18:23.370Z,97208.06
2022-11-05T09:20:49.623Z,97201.91
2022-11-05T09:23:15.922Z,97208.28
2022-11-05T09:25:42.179Z,97215.03
2022-11-05T09:28:08.413Z,97215.03
2022-11-05T09:30:34.645Z,97216.66
2022-11-05T09:33:00.892Z,97207.59
2022-11-05T09:35:27.132Z,97208.75
2022-11-05T09:37:58.205Z,97209.91
2022-11-05T09:40:26.945Z,97210.00
2022-11-05T09:42:53.240Z,97209.19
2022-11-05T09:45:19.479Z,97203.38
2022-11-05T09:47:45.725Z,97209.84
2022-11-05T09:50:11.972Z,97209.38
2022-11-05T09:52:38.220Z,97215.53
2022-11-05T09:55:04.504Z,97219.59
2022-11-05T09:57:30.742Z,97219.69
2022-11-05T09:59:57.189Z,97221.09
2022-11-05T10:02:23.499Z,97222.25
2022-11-05T10:04:49.866Z,97226.06
2022-11-05T10:07:16.160Z,97221.28
2022-11-05T10:09:42.421Z,97229.41
2022-11-05T10:12:08.670Z,97231.16
2022-11-05T10:14:34.917Z,97236.59
2022-11-05T10:17:01.176Z,97231.91
2022-11-05T10:19:27.466Z,97229.81
2022-11-05T10:22:06.248Z,97231.44
2022-11-05T10:24:33.105Z,97233.97
2022-11-05T10:26:59.355Z,97236.97
2022-11-05T10:29:25.592Z,97231.16
2022-11-05T10:31:51.843Z,97234.41
2022-11-05T10:34:18.090Z,97236.03
2022-11-05T10:36:44.351Z,97236.59
2022-11-05T10:39:10.594Z,97231.69
2022-11-05T10:41:36.841Z,97234.44
2022-11-05T10:44:03.125Z,97228.03
2022-11-05T10:46:29.374Z,97228.94
2022-11-05T10:48:55.623Z,97227.88
2022-11-05T10:51:21.872Z,97220.75
2022-11-05T10:53:48.142Z,97223.41
2022-11-05T10:56:14.387Z,97212.53
2022-11-05T10:58:40.627Z,97211.88
2022-11-05T11:01:06.917Z,97205.53
2022-11-05T11:03:33.240Z,97209.44
2022-11-05T11:05:59.500Z,97205.22
2022-11-05T11:08:25.752Z,97208.13
2022-11-05T11:10:52.002Z,97201.72
2022-11-05T11:13:18.246Z,97195.47
2022-11-05T11:15:46.043Z,97200.34
2022-11-05T11:18:12.295Z,97199.94
2022-11-05T11:20:38.528Z,97197.81
2022-11-05T11:23:04.778Z,97207.63
2022-11-05T11:25:31.028Z,97200.97
2022-11-05T11:27:57.285Z,97200.16
2022-11-05T11:30:23.532Z,97205.44
2022-11-05T11:32:49.784Z,97206.00
2022-11-05T11:35:16.039Z,97200.06
2022-11-05T11:37:42.354Z,97199.59
2022-11-05T11:40:10.107Z,97197.97
2022-11-05T11:42:36.530Z,97193.91
2022-11-05T11:45:02.850Z,97198.47
2022-11-05T11:47:29.105Z,97200.66
2022-11-05T11:49:55.377Z,97206.56
2022-11-05T11:52:21.627Z,97194.78
2022-11-05T11:54:47.891Z,97194.88
2022-11-05T11:57:15.228Z,97206.16
2022-11-05T12:00:07.295Z,97197.06
2022-11-05T12:02:27.867Z,97197.66
2022-11-05T12:04:54.187Z,97182.63
2022-11-05T12:07:20.434Z,97179.69
2022-11-05T12:09:46.682Z,97181.63
2022-11-05T12:12:12.923Z,97173.41
2022-11-05T12:14:42.393Z,97174.59
2022-11-05T12:17:12.394Z,97183.75
2022-11-05T12:19:38.641Z,97189.13
2022-11-05T12:22:04.896Z,97184.56
2022-11-05T12:24:31.228Z,97180.84
2022-11-05T12:26:57.477Z,97189.94
2022-11-05T12:29:23.724Z,97190.00
2022-11-05T12:31:49.992Z,97189.75
2022-11-05T12:34:16.231Z,97195.63
2022-11-05T12:36:42.480Z,97191.25
2022-11-05T12:39:08.745Z,97190.19
2022-11-05T12:41:34.988Z,97185.69
2022-11-05T12:44:01.232Z,97175.59
2022-11-05T12:46:27.477Z,97186.06
2022-11-05T12:48:53.758Z,97189.06
2022-11-05T12:51:20.004Z,97182.09
2022-11-05T12:53:46.245Z,97183.63
2022-11-05T12:56:12.488Z,97179.34
2022-11-05T12:58:38.833Z,97183.88
2022-11-05T13:01:05.127Z,97188.31
2022-11-05T13:03:31.378Z,97188.06
2022-11-05T13:06:02.900Z,97186.25
2022-11-05T13:08:31.841Z,97192.44
2022-11-05T13:10:58.083Z,97179.59
2022-11-05T13:13:24.346Z,97178.72
2022-11-05T13:15:50.590Z,97183.13
2022-11-05T13:18:16.837Z,97175.91
2022-11-05T13:20:43.106Z,97177.28
2022-11-05T13:23:09.659Z,97172.41
2022-11-05T13:25:36.149Z,97174.84
2022-11-05T13:28:02.390Z,97172.72
2022-11-05T13:30:28.643Z,97179.72
2022-11-05T13:32:54.894Z,97176.53
2022-11-05T13:35:21.167Z,97173.78
2022-11-05T13:37:47.466Z,97174.03
2022-11-05T13:40:13.720Z,97176.72
2022-11-05T13:42:39.986Z,97175.91
2022-11-05T13:45:06.246Z,97176.72
2022-11-05T13:47:32.493Z,97177.28
2022-11-05T13:49:58.834Z,97175.34
2022-11-05T13:52:25.103Z,97177.53
2022-11-05T13:54:51.528Z,97170.53
2022-11-05T13:57:17.800Z,97173.72
2022-11-05T13:59:44.105Z,97169.66
2022-11-05T14:02:10.564Z,97179.59
2022-11-05T14:04:36.973Z,97175.28
2022-11-05T14:07:03.228Z,97177.97
2022-11-05T14:09:29.480Z,97171.78
2022-11-05T14:11:55.714Z,97162.44
2022-11-05T14:14:21.966Z,97169.34
2022-11-05T14:16:48.213Z,97167.25
2022-11-05T14:19:14.486Z,97156.25
2022-11-05T14:21:40.752Z,97163.00
2022-11-05T14:24:07.006Z,97155.75
2022-11-05T14:26:33.330Z,97163.00
2022-11-05T14:28:59.605Z,97156.63
2022-11-05T14:31:47.436Z,97160.19
2022-11-05T14:34:12.080Z,97167.00
2022-11-05T14:36:38.322Z,97158.69
2022-11-05T14:39:04.663Z,97161.06
2022-11-05T14:41:30.925Z,97159.69
2022-11-05T14:43:57.165Z,97160.25
2022-11-05T14:46:23.402Z,97162.03
2022-11-05T14:48:49.633Z,97152.63
2022-11-05T14:51:15.865Z,97159.81
2022-11-05T14:53:42.108Z,97162.19
2022-11-05T14:56:08.336Z,97170.66
2022-11-05T14:58:34.604Z,97168.00
2022-11-05T15:01:00.945Z,97171.41
2022-11-05T15:03:27.309Z,97165.19
2022-11-05T15:05:53.605Z,97170.47
2022-11-05T15:08:19.856Z,97169.84
2022-11-05T15:10:46.120Z,97176.78
2022-11-05T15:13:12.716Z,97172.41
2022-11-05T15:15:39.167Z,97170.25
2022-11-05T15:18:05.408Z,97172.03
2022-11-05T15:20:37.182Z,97167.19
2022-11-05T15:23:06.034Z,97176.53
2022-11-05T15:25:32.292Z,97163.88
2022-11-05T15:27:58.649Z,97164.09
2022-11-05T15:30:25.244Z,97157.88
2022-11-05T15:32:51.501Z,97156.50
2022-11-05T15:35:17.875Z,97160.47
2022-11-05T15:37:48.501Z,97156.66
2022-11-05T15:40:18.750Z,97152.59
2022-11-05T15:42:45.036Z,97158.69
2022-11-05T15:45:11.272Z,97168.03
2022-11-05T15:47:37.516Z,97163.97
2022-11-05T15:50:03.809Z,97165.53
2022-11-05T15:52:30.174Z,97167.31
2022-11-05T15:54:56.434Z,97184.94
2022-11-05T15:57:22.677Z,97181.69
2022-11-05T15:59:48.999Z,97176.81
2022-11-05T16:02:15.350Z,97178.34
2022-11-05T16:04:41.641Z,97176.13
2022-11-05T16:07:07.896Z,97171.75
2022-11-05T16:09:34.144Z,97173.53
2022-11-05T16:12:00.377Z,97170.28
2022-11-05T16:14:26.712Z,97173.44
2022-11-05T16:16:52.944Z,97166.13
2022-11-05T16:19:19.204Z,97157.53
2022-11-05T16:21:45.472Z,97159.06
2022-11-05T16:24:11.709Z,97160.38
2022-11-05T16:29:24.166Z,97164.00
2022-11-05T16:31:50.413Z,97161.56
2022-11-05T16:34:16.673Z,97163.69
2022-11-05T16:36:42.932Z,97163.13
2022-11-05T16:39:09.177Z,97165.22
2022-11-05T16:41:35.430Z,97170.66
2022-11-05T16:44:01.683Z,97173.34
2022-11-05T16:46:27.963Z,97183.47
2022-11-05T16:48:54.243Z,97189.78
2022-11-05T16:51:26.243Z,97190.25
2022-11-05T16:53:53.674Z,97187.81
2022-11-05T16:56:19.928Z,97192.25
2022-11-05T16:58:46.166Z,97200.78
2022-11-05T17:01:12.458Z,97197.75
2022-11-05T17:03:38.768Z,97205.78
2022-11-05T17:06:05.014Z,97207.06
2022-11-05T17:08:31.291Z,97213.94
2022-11-05T17:10:57.568Z,97214.19
2022-11-05T17:13:23.844Z,97210.69
2022-11-05T17:15:50.097Z,97210.59
2022-11-05T17:18:18.870Z,97205.16
2022-11-05T17:20:45.522Z,97211.19
2022-11-05T17:23:12.189Z,97215.16
2022-11-05T17:25:38.644Z,97207.94
2022-11-05T17:28:04.915Z,97205.66
2022-11-05T17:30:31.184Z,97208.31
2022-11-05T17:32:57.539Z,97208.25
2022-11-05T17:35:23.809Z,97198.84
2022-11-05T17:37:50.103Z,97197.69
2022-11-05T17:40:16.373Z,97208.03
2022-11-05T17:42:42.604Z,97204.56
2022-11-05T17:45:08.850Z,97207.47
2022-11-05T17:47:35.089Z,97204.44
2022-11-05T17:50:01.365Z,97212.34
2022-11-05T17:52:27.624Z,97228.50
2022-11-05T17:54:53.892Z,97227.09
2022-11-05T17:57:20.230Z,97222.47
2022-11-05T17:59:46.473Z,97221.66
2022-11-05T18:02:12.840Z,97217.22
2022-11-05T18:04:39.267Z,97218.50
2022-11-05T18:07:05.528Z,97211.97
2022-11-05T18:09:31.772Z,97210.34
2022-11-05T18:11:58.030Z,97203.63
2022-11-05T18:14:24.395Z,97202.81
2022-11-05T18:16:50.645Z,97202.47
2022-11-05T18:19:16.894Z,97196.19
2022-11-05T18:21:43.134Z,97201.53
2022-11-05T18:24:09.357Z,97208.38
2022-11-05T18:26:35.592Z,97205.38
2022-11-05T18:29:01.835Z,97203.97
2022-11-05T18:31:28.094Z,97205.81
2022-11-05T18:33:54.397Z,97205.25
2022-11-05T18:36:20.652Z,97222.41
2022-11-05T18:38:46.906Z,97224.72
2022-11-05T18:41:13.148Z,97222.75
2022-11-05T18:43:39.384Z,97215.44
2022-11-05T18:46:05.639Z,97220.28
2022-11-05T18:48:31.868Z,97215.41
2022-11-05T18:51:01.867Z,97224.31
2022-11-05T18:53:28.449Z,97222.13
2022-11-05T18:55:54.718Z,97221.75
2022-11-05T18:58:20.973Z,97221.84
2022-11-05T19:00:47.218Z,97217.78
2022-11-05T19:03:13.492Z,97208.16
2022-11-05T19:05:39.836Z,97207.56
2022-11-05T19:08:06.084Z,97209.66
2022-11-05T19:10:32.339Z,97215.00
2022-11-05T19:12:58.615Z,97218.69
2022-11-05T19:15:24.920Z,97219.97
2022-11-05T19:17:51.150Z,97231.53
2022-11-05T19:20:17.392Z,97240.22
2022-11-05T19:22:43.671Z,97234.88
2022-11-05T19:25:09.923Z,97237.41
2022-11-05T19:27:36.190Z,97225.13
2022-11-05T19:30:02.471Z,97221.41
2022-11-05T19:32:28.754Z,97231.50
2022-11-05T19:34:55.018Z,97234.47
2022-11-05T19:37:21.268Z,97232.69
2022-11-05T19:39:47.513Z,97231.06
2022-11-05T19:42:13.748Z,97229.91
2022-11-05T19:44:40.036Z,97235.25
2022-11-05T19:47:06.263Z,97234.44
2022-11-05T19:49:32.512Z,97235.94
2022-11-05T19:51:58.762Z,97243.56
2022-11-05T19:54:25.031Z,97246.66
2022-11-05T19:56:51.267Z,97243.41
2022-11-05T19:59:17.511Z,97240.16
2022-11-05T20:01:43.885Z,97242.22
2022-11-05T20:04:10.334Z,97235.50
2022-11-05T20:06:36.603Z,97233.63
2022-11-05T20:11:49.095Z,97229.75
2022-11-05T20:14:15.344Z,97227.53
2022-11-05T20:16:41.595Z,97227.16
2022-11-05T20:19:07.843Z,97230.66
2022-11-05T20:21:34.095Z,97229.97
2022-11-05T20:24:00.358Z,97230.97
2022-11-05T20:26:26.619Z,97226.28
2022-11-05T20:28:52.868Z,97234.28
2022-11-05T20:31:19.100Z,97227.97
2022-11-05T20:33:45.330Z,97222.28
2022-11-05T20:36:11.579Z,97226.66
2022-11-05T20:38:37.820Z,97224.59
2022-11-05T20:41:04.065Z,97234.78
2022-11-05T20:43:30.674Z,97238.28
2022-11-05T20:45:56.967Z,97241.38
2022-11-05T20:48:23.209Z,97235.91
2022-11-05T20:50:49.473Z,97236.56
2022-11-05T20:53:15.737Z,97234.94
2022-11-05T20:55:41.979Z,97246.25
2022-11-05T20:58:08.231Z,97240.72
2022-11-05T21:00:34.469Z,97246.41
2022-11-05T21:03:00.882Z,97236.13
2022-11-05T21:05:31.243Z,97247.44
2022-11-05T21:08:00.591Z,97245.22
2022-11-05T21:10:26.851Z,97249.13
2022-11-05T21:12:53.122Z,97239.97
2022-11-05T21:15:19.358Z,97239.81
2022-11-05T21:17:45.601Z,97244.53
2022-11-05T21:20:11.861Z,97248.91
2022-11-05T21:22:38.116Z,97264.06
2022-11-05T21:25:04.374Z,97263.03
2022-11-05T21:27:30.630Z,97258.34
2022-11-05T21:29:56.864Z,97258.19
2022-11-05T21:32:23.143Z,97256.94
2022-11-05T21:34:49.398Z,97267.81
2022-11-05T21:37:15.649Z,97274.66
2022-11-05T21:39:41.881Z,97273.31
2022-11-05T21:42:08.168Z,97275.97
2022-11-05T21:44:34.411Z,97276.41
2022-11-05T21:47:00.679Z,97263.91
2022-11-05T21:49:26.912Z,97259.59
2022-11-05T21:51:53.162Z,97261.06
2022-11-05T21:54:19.403Z,97269.06
2022-11-05T21:56:45.656Z,97269.06
2022-11-05T21:59:11.895Z,97277.69
2022-11-05T22:01:38.298Z,97276.50
2022-11-05T22:04:04.579Z,97284.91
2022-11-05T22:06:30.831Z,97284.75
2022-11-05T22:08:57.199Z,97280.00
2022-11-05T22:11:23.467Z,97281.44
2022-11-05T22:13:49.717Z,97277.34
2022-11-05T22:16:15.990Z,97283.50
2022-11-05T22:18:42.227Z,97282.69
2022-11-05T22:21:08.468Z,97283.50
2022-11-05T22:23:34.801Z,97275.13
2022-11-05T22:26:01.050Z,97253.25
2022-11-05T22:28:27.302Z,97262.00
2022-11-05T22:30:53.554Z,97252.97
2022-11-05T22:33:19.803Z,97254.19
2022-11-05T22:35:46.055Z,97255.41
2022-11-05T22:38:12.644Z,97256.03
2022-11-05T22:40:39.125Z,97245.97
2022-11-05T22:43:05.393Z,97238.00
2022-11-05T22:45:31.655Z,97233.88
2022-11-05T22:47:57.901Z,97221.22
2022-11-05T22:50:24.233Z,97207.91
2022-11-05T22:52:50.464Z,97200.75
2022-11-05T22:55:16.744Z,97214.03
2022-11-05T22:57:42.984Z,97209.16
2022-11-05T23:00:09.294Z,97205.25
2022-11-05T23:02:35.644Z,97195.41
2022-11-05T23:05:01.955Z,97196.66
2022-11-05T23:07:28.214Z,97195.84
2022-11-05T23:09:54.512Z,97189.50
2022-11-05T23:12:20.759Z,97194.22
2022-11-05T23:14:46.995Z,97187.06
2022-11-05T23:17:13.270Z,97184.63
2022-11-05T23:19:39.511Z,97186.91
2022-11-05T23:22:05.751Z,97200.84
2022-11-05T23:24:31.990Z,97214.41
2022-11-05T23:26:58.270Z,97218.19
2022-11-05T23:29:24.513Z,97225.41
2022-11-05T23:31:50.761Z,97222.38
2022-11-05T23:34:17.015Z,97236.72
2022-11-05T23:36:43.272Z,97241.72
2022-11-05T23:39:09.551Z,97245.44
2022-11-05T23:41:35.807Z,97242.75
2022-11-05T23:44:02.063Z,97240.09
2022-11-05T23:46:28.304Z,97245.00
2022-11-05T23:48:54.671Z,97235.94
2022-11-05T23:51:20.921Z,97237.00
2022-11-05T23:53:47.168Z,97228.56
2022-11-05T23:56:13.424Z,97222.09
2022-11-05T23:58:39.692Z,97221.41
